Moscow Mills, Missouri
Current Conditions -  °F | °C
As of 3:54 PM on Sunday 23 Nov 2014 (Local Time) from KSUS Reporting Station
Light Rain Light Rain  
Wind Chill: 55°   Ceiling: 700
Heat Index: 55°   Visibility: 6mi
Dew Point: 53°   Wind: 3mph
Humidity: 93%   Direction: 90°E
Pressure: 29.32"   Gusts: NA
Location:  38.95°N, 90.92°W
Report Text: KSUS 232154Z 09003KT 6SM -RA BR BKN007 OVC041 13/12 A2932 RMK AO2 SLP929 P0009 T01280117
Loading
Personal Weather Stations






























Interactive Weather Map New forecast layout! Learn more

10-Day Weather Forecast

Advertisements
Track Severe Weather on mobile